createdAt,value
2023-01-31T00:00:42.154Z,509.00
2023-01-31T00:01:42.156Z,511.00
2023-01-31T00:02:42.210Z,514.00
2023-01-31T00:03:42.184Z,512.00
2023-01-31T00:04:42.118Z,512.00
2023-01-31T00:55:27.688Z,500.00
2023-01-31T00:56:28.643Z,500.00
2023-01-31T00:57:28.634Z,500.00
2023-01-31T00:58:28.627Z,500.00
2023-01-31T00:59:28.622Z,500.00
2023-01-31T01:00:28.642Z,500.00
2023-01-31T01:01:28.602Z,449.00
2023-01-31T01:02:28.590Z,415.00
2023-01-31T01:03:28.584Z,419.00
2023-01-31T01:04:28.568Z,425.00
2023-01-31T01:05:28.559Z,450.00
2023-01-31T01:06:28.573Z,468.00
2023-01-31T01:07:28.548Z,486.00
2023-01-31T01:08:28.536Z,499.00
2023-01-31T01:09:28.529Z,498.00
2023-01-31T01:10:28.517Z,507.00
2023-01-31T01:11:28.535Z,510.00
2023-01-31T01:12:28.498Z,500.00
2023-01-31T01:13:28.492Z,502.00
2023-01-31T01:14:28.478Z,500.00
2023-01-31T01:15:28.505Z,504.00
2023-01-31T01:16:28.542Z,512.00
2023-01-31T01:17:28.454Z,509.00
2023-01-31T01:18:28.444Z,510.00
2023-01-31T01:19:28.434Z,500.00
2023-01-31T01:20:28.422Z,501.00
2023-01-31T01:21:28.443Z,504.00
2023-01-31T01:22:28.403Z,521.00
2023-01-31T01:23:28.402Z,500.00
2023-01-31T01:24:28.389Z,500.00
2023-01-31T01:25:28.371Z,511.00
2023-01-31T01:26:28.401Z,504.00
2023-01-31T01:27:28.379Z,507.00
2023-01-31T01:28:29.138Z,503.00
2023-01-31T01:29:28.347Z,505.00
2023-01-31T01:30:28.329Z,505.00
2023-01-31T01:31:28.368Z,505.00
2023-01-31T01:32:28.308Z,507.00
2023-01-31T01:33:28.330Z,512.00
2023-01-31T01:34:28.293Z,508.00
2023-01-31T01:35:28.281Z,503.00
2023-01-31T01:36:28.278Z,508.00
2023-01-31T01:37:28.259Z,512.00
2023-01-31T01:38:28.254Z,506.00
2023-01-31T01:39:28.482Z,504.00
2023-01-31T01:40:28.728Z,504.00
2023-01-31T01:41:28.701Z,512.00
2023-01-31T01:42:28.586Z,510.00
2023-01-31T01:43:28.362Z,513.00
2023-01-31T01:44:28.374Z,502.00
2023-01-31T01:45:28.272Z,503.00
2023-01-31T01:46:28.349Z,508.00
2023-01-31T01:47:28.159Z,517.00
2023-01-31T01:48:28.150Z,512.00
2023-01-31T01:49:28.145Z,514.00
2023-01-31T01:50:28.702Z,526.00
2023-01-31T01:51:28.598Z,509.00
2023-01-31T01:52:28.493Z,511.00
2023-01-31T01:53:28.491Z,515.00
2023-01-31T01:54:28.629Z,511.00
2023-01-31T01:55:28.239Z,506.00
2023-01-31T01:56:28.178Z,518.00
2023-01-31T01:57:28.183Z,512.00
2023-01-31T01:58:28.061Z,517.00
2023-01-31T01:59:28.091Z,508.00
2023-01-31T02:00:28.045Z,515.00
2023-01-31T02:01:28.498Z,500.00
2023-01-31T02:02:28.591Z,501.00
2023-01-31T02:03:28.332Z,513.00
2023-01-31T02:04:28.248Z,514.00
2023-01-31T02:05:28.177Z,520.00
2023-01-31T02:06:28.031Z,516.00
2023-01-31T02:07:28.026Z,508.00
2023-01-31T02:08:27.959Z,506.00
2023-01-31T02:09:27.956Z,514.00
2023-01-31T02:10:27.957Z,506.00
2023-01-31T02:11:28.481Z,513.00
2023-01-31T02:12:28.528Z,511.00
2023-01-31T02:13:28.433Z,506.00
2023-01-31T02:14:28.213Z,512.00
2023-01-31T02:15:28.191Z,524.00
2023-01-31T02:16:28.069Z,515.00
2023-01-31T02:17:28.023Z,508.00
2023-01-31T02:18:27.984Z,506.00
2023-01-31T02:19:27.860Z,510.00
2023-01-31T02:20:27.850Z,510.00
2023-01-31T02:21:27.844Z,511.00
2023-01-31T02:22:27.833Z,521.00
2023-01-31T02:23:28.465Z,516.00
2023-01-31T02:24:28.291Z,509.00
2023-01-31T02:25:28.164Z,507.00
2023-01-31T02:26:28.029Z,520.00
2023-01-31T02:27:27.921Z,506.00
2023-01-31T02:28:27.899Z,509.00
2023-01-31T02:29:27.772Z,524.00
2023-01-31T02:30:27.752Z,510.00
2023-01-31T02:31:27.859Z,506.00
2023-01-31T02:32:27.741Z,511.00
2023-01-31T02:33:27.727Z,510.00
2023-01-31T02:34:27.729Z,504.00
2023-01-31T02:35:27.784Z,504.00
2023-01-31T02:36:27.704Z,501.00
2023-01-31T02:37:27.920Z,513.00
2023-01-31T02:38:27.679Z,503.00
2023-01-31T02:39:27.677Z,519.00
2023-01-31T02:40:27.669Z,517.00
2023-01-31T02:41:27.660Z,522.00
2023-01-31T02:42:27.648Z,515.00
2023-01-31T02:43:27.642Z,508.00
2023-01-31T02:44:27.629Z,513.00
2023-01-31T02:45:27.630Z,510.00
2023-01-31T02:46:27.610Z,514.00
2023-01-31T02:47:27.630Z,522.00
2023-01-31T02:48:27.589Z,513.00
2023-01-31T02:49:27.581Z,521.00
2023-01-31T02:50:27.573Z,508.00
2023-01-31T02:51:29.379Z,512.00
2023-01-31T02:52:27.553Z,512.00
2023-01-31T02:53:27.543Z,513.00
2023-01-31T02:54:27.536Z,513.00
2023-01-31T02:55:27.525Z,515.00
2023-01-31T02:56:27.527Z,515.00
2023-01-31T02:57:27.513Z,511.00
2023-01-31T02:58:27.498Z,518.00
2023-01-31T02:59:27.488Z,511.00
2023-01-31T03:00:27.478Z,509.00
2023-01-31T03:01:27.538Z,517.00
2023-01-31T03:02:27.486Z,518.00
2023-01-31T03:03:27.479Z,511.00
2023-01-31T03:04:27.441Z,519.00
2023-01-31T03:05:27.629Z,521.00
2023-01-31T03:06:27.425Z,523.00
2023-01-31T03:07:27.413Z,507.00
2023-01-31T03:08:27.402Z,514.00
2023-01-31T03:09:27.390Z,516.00
2023-01-31T03:10:27.383Z,526.00
2023-01-31T03:11:27.383Z,524.00
2023-01-31T03:12:27.393Z,512.00
2023-01-31T03:13:27.366Z,525.00
2023-01-31T03:14:27.369Z,503.00
2023-01-31T03:15:27.336Z,502.00
2023-01-31T03:16:27.330Z,513.00
2023-01-31T03:17:27.319Z,516.00
2023-01-31T03:18:27.316Z,506.00
2023-01-31T03:19:27.326Z,505.00
2023-01-31T03:20:27.298Z,514.00
2023-01-31T03:21:27.273Z,509.00
2023-01-31T03:22:27.266Z,515.00
2023-01-31T03:23:27.270Z,514.00
2023-01-31T03:24:27.250Z,515.00
2023-01-31T03:25:27.270Z,504.00
2023-01-31T03:26:27.248Z,516.00
2023-01-31T03:27:27.225Z,502.00
2023-01-31T03:28:27.216Z,517.00
2023-01-31T03:29:27.205Z,512.00
2023-01-31T03:30:27.201Z,500.00
2023-01-31T03:31:27.266Z,519.00
2023-01-31T03:32:27.171Z,513.00
2023-01-31T03:33:27.164Z,524.00
2023-01-31T03:34:27.154Z,518.00
2023-01-31T03:35:27.177Z,512.00
2023-01-31T03:36:27.131Z,511.00
2023-01-31T03:37:27.124Z,514.00
2023-01-31T03:38:27.114Z,520.00
2023-01-31T03:39:27.101Z,510.00
2023-01-31T03:40:27.099Z,507.00
2023-01-31T03:41:27.088Z,511.00
2023-01-31T03:42:27.083Z,528.00
2023-01-31T03:43:27.068Z,511.00
2023-01-31T03:44:27.054Z,506.00
2023-01-31T03:45:27.047Z,518.00
2023-01-31T03:46:27.099Z,514.00
2023-01-31T03:47:27.031Z,516.00
2023-01-31T03:48:27.019Z,515.00
2023-01-31T03:49:27.012Z,528.00
2023-01-31T03:50:27.007Z,521.00
2023-01-31T03:51:27.053Z,519.00
2023-01-31T03:52:26.985Z,527.00
2023-01-31T03:53:26.973Z,518.00
2023-01-31T03:54:26.960Z,519.00
2023-01-31T03:55:26.950Z,515.00
2023-01-31T03:56:26.949Z,523.00
2023-01-31T03:57:26.939Z,510.00
2023-01-31T03:58:26.920Z,516.00
2023-01-31T03:59:26.912Z,518.00
2023-01-31T04:00:26.916Z,519.00
2023-01-31T04:01:26.934Z,523.00
2023-01-31T04:02:26.950Z,511.00
2023-01-31T04:03:26.893Z,512.00
2023-01-31T04:04:26.872Z,512.00
2023-01-31T04:05:26.857Z,514.00
2023-01-31T04:06:26.842Z,516.00
2023-01-31T04:07:26.869Z,512.00
2023-01-31T04:08:26.850Z,513.00
2023-01-31T04:09:26.826Z,514.00
2023-01-31T04:10:26.809Z,515.00
2023-01-31T04:11:26.816Z,515.00
2023-01-31T04:12:26.791Z,519.00
2023-01-31T04:13:26.783Z,508.00
2023-01-31T04:14:26.773Z,516.00
2023-01-31T04:15:26.769Z,513.00
2023-01-31T04:16:26.816Z,524.00
2023-01-31T04:17:26.740Z,509.00
2023-01-31T04:18:26.735Z,511.00
2023-01-31T04:19:26.732Z,524.00
2023-01-31T04:20:26.721Z,521.00
2023-01-31T04:21:26.708Z,515.00
2023-01-31T04:22:26.690Z,513.00
2023-01-31T04:23:26.707Z,515.00
2023-01-31T04:24:26.688Z,523.00
2023-01-31T04:25:26.681Z,518.00
2023-01-31T04:26:26.704Z,512.00
2023-01-31T04:27:26.643Z,514.00
2023-01-31T04:28:26.636Z,517.00
2023-01-31T04:29:26.629Z,515.00
2023-01-31T04:30:26.621Z,513.00
2023-01-31T04:31:26.690Z,506.00
2023-01-31T04:32:26.614Z,516.00
2023-01-31T04:33:26.592Z,518.00
2023-01-31T04:34:26.581Z,511.00
2023-01-31T04:35:26.584Z,502.00
2023-01-31T04:36:26.564Z,522.00
2023-01-31T04:37:26.650Z,514.00
2023-01-31T04:38:26.550Z,510.00
2023-01-31T04:39:26.564Z,520.00
2023-01-31T04:40:26.525Z,528.00
2023-01-31T04:41:26.519Z,525.00
2023-01-31T04:42:26.502Z,503.00
2023-01-31T04:43:26.497Z,521.00
2023-01-31T04:44:26.488Z,512.00
2023-01-31T04:45:26.476Z,521.00
2023-01-31T04:46:26.543Z,525.00
2023-01-31T04:47:26.461Z,514.00
2023-01-31T04:48:28.281Z,521.00
2023-01-31T04:49:26.445Z,521.00
2023-01-31T04:50:26.432Z,522.00
2023-01-31T04:51:26.422Z,511.00
2023-01-31T04:52:26.419Z,509.00
2023-01-31T04:53:26.401Z,522.00
2023-01-31T04:54:26.421Z,521.00
2023-01-31T04:55:26.408Z,518.00
2023-01-31T04:56:26.376Z,514.00
2023-01-31T04:57:26.365Z,511.00
2023-01-31T04:58:26.354Z,511.00
2023-01-31T04:59:26.345Z,520.00
2023-01-31T05:00:26.332Z,524.00
2023-01-31T05:01:26.330Z,518.00
2023-01-31T05:02:26.332Z,515.00
2023-01-31T05:03:26.320Z,521.00
2023-01-31T05:04:26.328Z,512.00
2023-01-31T05:05:26.296Z,518.00
2023-01-31T05:06:26.278Z,525.00
2023-01-31T05:07:26.273Z,511.00
2023-01-31T05:08:26.263Z,514.00
2023-01-31T05:09:26.251Z,520.00
2023-01-31T05:10:26.244Z,527.00
2023-01-31T05:11:26.264Z,521.00
2023-01-31T05:12:26.217Z,522.00
2023-01-31T05:13:26.519Z,509.00
2023-01-31T05:14:26.208Z,515.00
2023-01-31T05:15:26.197Z,520.00
2023-01-31T05:16:26.303Z,510.00
2023-01-31T05:17:26.207Z,502.00
2023-01-31T05:18:27.157Z,515.00
2023-01-31T05:19:26.188Z,517.00
2023-01-31T05:20:26.149Z,514.00
2023-01-31T05:21:26.137Z,520.00
2023-01-31T05:22:26.127Z,516.00
2023-01-31T05:23:26.128Z,518.00
2023-01-31T05:24:26.113Z,521.00
2023-01-31T05:25:26.116Z,510.00
2023-01-31T05:26:26.147Z,519.00
2023-01-31T05:27:26.104Z,517.00
2023-01-31T05:28:26.071Z,515.00
2023-01-31T05:29:26.075Z,522.00
2023-01-31T05:30:26.062Z,520.00
2023-01-31T05:31:26.191Z,522.00
2023-01-31T05:32:26.043Z,519.00
2023-01-31T05:33:26.022Z,511.00
2023-01-31T05:34:26.015Z,522.00
2023-01-31T05:35:26.006Z,511.00
2023-01-31T05:36:26.000Z,526.00
2023-01-31T05:37:25.988Z,521.00
2023-01-31T05:38:25.987Z,515.00
2023-01-31T05:39:25.968Z,518.00
2023-01-31T05:40:25.958Z,518.00
2023-01-31T05:41:25.953Z,522.00
2023-01-31T05:42:25.941Z,525.00
2023-01-31T05:43:25.967Z,513.00
2023-01-31T05:44:25.922Z,513.00
2023-01-31T05:45:25.981Z,515.00
2023-01-31T05:46:25.901Z,525.00
2023-01-31T05:47:25.901Z,506.00
2023-01-31T05:48:25.879Z,521.00
2023-01-31T05:49:25.869Z,509.00
2023-01-31T05:50:25.865Z,507.00
2023-01-31T05:51:25.853Z,510.00
2023-01-31T05:52:25.849Z,511.00
2023-01-31T05:53:25.841Z,511.00
2023-01-31T05:54:25.832Z,516.00
2023-01-31T05:55:25.815Z,518.00
2023-01-31T05:56:25.804Z,514.00
2023-01-31T05:57:25.797Z,519.00
2023-01-31T05:58:25.852Z,509.00
2023-01-31T05:59:25.809Z,518.00
2023-01-31T06:00:25.769Z,516.00
2023-01-31T06:01:25.761Z,508.00
2023-01-31T06:02:25.809Z,516.00
2023-01-31T06:03:25.805Z,513.00
2023-01-31T06:04:25.735Z,518.00
2023-01-31T06:05:25.724Z,529.00
2023-01-31T06:06:25.720Z,522.00
2023-01-31T06:07:25.705Z,514.00
2023-01-31T06:08:25.702Z,512.00
2023-01-31T06:09:25.724Z,516.00
2023-01-31T06:10:25.688Z,521.00
2023-01-31T06:11:25.671Z,521.00
2023-01-31T06:12:26.110Z,511.00
2023-01-31T06:13:25.655Z,511.00
2023-01-31T06:14:25.650Z,508.00
2023-01-31T06:15:25.668Z,522.00
2023-01-31T06:16:25.693Z,513.00
2023-01-31T06:17:27.623Z,511.00
2023-01-31T06:18:25.616Z,512.00
2023-01-31T06:19:25.605Z,509.00
2023-01-31T06:20:25.597Z,515.00
2023-01-31T06:21:25.593Z,519.00
2023-01-31T06:22:25.606Z,543.00
2023-01-31T06:23:25.622Z,563.00
2023-01-31T06:24:25.583Z,586.00
2023-01-31T06:25:25.545Z,612.00
2023-01-31T06:26:25.566Z,617.00
2023-01-31T06:27:25.527Z,625.00
2023-01-31T06:28:25.520Z,633.00
2023-01-31T06:29:25.512Z,644.00
2023-01-31T06:30:25.591Z,635.00
2023-01-31T06:31:25.593Z,651.00
2023-01-31T06:32:25.478Z,648.00
2023-01-31T06:33:42.177Z,647.00
2023-01-31T06:34:25.466Z,648.00
2023-01-31T06:35:25.449Z,843.00
2023-01-31T06:36:25.450Z,817.00
2023-01-31T06:37:25.447Z,842.00
2023-01-31T06:38:25.429Z,930.00
2023-01-31T06:39:25.409Z,921.00
2023-01-31T06:40:25.407Z,912.00
2023-01-31T06:41:25.390Z,975.00
2023-01-31T06:42:25.391Z,937.00
2023-01-31T06:43:25.640Z,825.00
2023-01-31T06:44:26.667Z,916.00
2023-01-31T06:45:25.383Z,917.00
2023-01-31T06:46:25.436Z,921.00
2023-01-31T06:47:25.362Z,910.00
2023-01-31T06:48:25.626Z,916.00
2023-01-31T06:49:25.315Z,908.00
2023-01-31T06:50:25.308Z,901.00
2023-01-31T06:51:25.311Z,921.00
2023-01-31T06:52:25.627Z,928.00
2023-01-31T06:53:25.641Z,938.00
2023-01-31T06:54:25.269Z,954.00
2023-01-31T06:55:25.259Z,996.00
2023-01-31T06:56:25.258Z,987.00
2023-01-31T06:57:25.631Z,996.00
2023-01-31T06:58:25.291Z,1002.00
2023-01-31T06:59:25.644Z,980.00
2023-01-31T07:00:25.225Z,967.00
2023-01-31T07:01:25.270Z,978.00
2023-01-31T07:03:25.216Z,928.00
2023-01-31T07:04:25.650Z,921.00
2023-01-31T07:05:25.177Z,842.00
2023-01-31T07:06:25.640Z,868.00
2023-01-31T07:07:25.159Z,836.00
2023-01-31T07:09:25.638Z,827.00
2023-01-31T07:10:25.440Z,843.00
2023-01-31T07:11:25.109Z,831.00
2023-01-31T07:12:25.140Z,799.00
2023-01-31T07:13:25.096Z,791.00
2023-01-31T07:14:25.136Z,776.00
2023-01-31T07:15:25.083Z,775.00
2023-01-31T07:16:25.121Z,767.00
2023-01-31T07:17:25.062Z,747.00
2023-01-31T07:18:25.152Z,715.00
2023-01-31T07:19:25.171Z,711.00
2023-01-31T07:20:25.044Z,723.00
2023-01-31T07:21:25.023Z,680.00
2023-01-31T07:22:25.009Z,695.00
2023-01-31T07:23:24.998Z,695.00
2023-01-31T07:24:25.141Z,677.00
2023-01-31T07:25:24.997Z,669.00
2023-01-31T07:26:25.006Z,665.00
2023-01-31T07:27:24.968Z,653.00
2023-01-31T07:28:24.953Z,662.00
2023-01-31T07:29:25.330Z,665.00
2023-01-31T07:30:24.978Z,656.00
2023-01-31T07:31:24.972Z,655.00
2023-01-31T07:32:24.914Z,665.00
2023-01-31T07:33:24.901Z,646.00
2023-01-31T07:34:24.893Z,652.00
2023-01-31T07:35:24.923Z,645.00
2023-01-31T07:36:24.895Z,640.00
2023-01-31T07:37:24.884Z,643.00
2023-01-31T07:38:24.862Z,644.00
2023-01-31T07:39:25.157Z,642.00
2023-01-31T07:40:24.840Z,640.00
2023-01-31T07:41:24.824Z,647.00
2023-01-31T07:42:24.846Z,639.00
2023-01-31T07:43:25.819Z,649.00
2023-01-31T07:44:25.152Z,632.00
2023-01-31T07:46:24.826Z,593.00
2023-01-31T07:47:24.778Z,600.00
2023-01-31T07:48:25.149Z,609.00
2023-01-31T07:49:25.179Z,617.00
2023-01-31T07:50:24.763Z,627.00
2023-01-31T07:51:24.785Z,618.00
2023-01-31T07:52:25.727Z,619.00
2023-01-31T07:53:24.718Z,614.00
2023-01-31T07:54:24.712Z,617.00
2023-01-31T07:55:25.169Z,614.00
2023-01-31T07:56:25.158Z,620.00
2023-01-31T07:57:24.679Z,625.00
2023-01-31T07:58:24.692Z,617.00
2023-01-31T07:59:24.674Z,631.00
2023-01-31T08:01:24.779Z,648.00
2023-01-31T08:02:24.642Z,671.00
2023-01-31T08:03:24.622Z,658.00
2023-01-31T08:04:24.619Z,658.00
2023-01-31T08:05:24.608Z,699.00
2023-01-31T08:06:24.664Z,694.00
2023-01-31T08:07:26.900Z,706.00
2023-01-31T08:08:24.576Z,707.00
2023-01-31T08:09:24.588Z,712.00
2023-01-31T08:10:24.664Z,725.00
2023-01-31T08:11:24.550Z,760.00
2023-01-31T08:12:24.553Z,798.00
2023-01-31T08:13:24.530Z,813.00
2023-01-31T08:14:24.544Z,837.00
2023-01-31T08:15:24.667Z,849.00
2023-01-31T08:16:25.377Z,864.00
2023-01-31T08:17:24.545Z,884.00
2023-01-31T08:18:24.492Z,907.00
2023-01-31T08:19:24.472Z,916.00
2023-01-31T08:20:24.486Z,930.00
2023-01-31T08:21:24.668Z,938.00
2023-01-31T08:22:24.456Z,966.00
2023-01-31T08:23:24.457Z,977.00
2023-01-31T08:24:24.432Z,995.00
2023-01-31T08:25:25.131Z,997.00
2023-01-31T08:26:24.493Z,1024.00
2023-01-31T08:27:24.405Z,1032.00
2023-01-31T08:28:24.392Z,1055.00
2023-01-31T08:29:24.394Z,1054.00
2023-01-31T08:30:24.435Z,1067.00
2023-01-31T08:31:25.042Z,1086.00
2023-01-31T08:32:24.414Z,1096.00
2023-01-31T08:33:24.350Z,1112.00
2023-01-31T08:35:24.343Z,1122.00
2023-01-31T08:36:24.682Z,1123.00
2023-01-31T08:38:24.334Z,1123.00
2023-01-31T08:39:24.325Z,1126.00
2023-01-31T08:40:24.292Z,1134.00
2023-01-31T08:41:25.736Z,1141.00
2023-01-31T08:42:24.277Z,1194.00
2023-01-31T08:43:24.265Z,1172.00
2023-01-31T08:44:24.267Z,1152.00
2023-01-31T08:45:24.315Z,1153.00
2023-01-31T08:46:24.759Z,1184.00
2023-01-31T08:47:24.225Z,1181.00
2023-01-31T08:48:24.218Z,1168.00
2023-01-31T08:49:24.227Z,1143.00
2023-01-31T08:50:27.926Z,1124.00
2023-01-31T08:51:24.734Z,1126.00
2023-01-31T08:52:24.197Z,1128.00
2023-01-31T08:53:24.170Z,1134.00
2023-01-31T08:54:24.185Z,1141.00
2023-01-31T08:55:24.260Z,1138.00
2023-01-31T08:56:24.182Z,1137.00
2023-01-31T08:57:24.169Z,1134.00
2023-01-31T08:58:24.198Z,1124.00
2023-01-31T08:59:24.127Z,1124.00
2023-01-31T09:00:24.129Z,1135.00
2023-01-31T09:01:24.832Z,1138.00
2023-01-31T09:02:24.159Z,1149.00
2023-01-31T09:03:24.103Z,1161.00
2023-01-31T09:04:24.071Z,1150.00
2023-01-31T09:05:24.057Z,1131.00
2023-01-31T09:06:24.060Z,1025.00
2023-01-31T09:07:24.183Z,945.00
2023-01-31T09:08:24.042Z,921.00
2023-01-31T09:09:24.023Z,952.00
2023-01-31T09:10:24.021Z,906.00
2023-01-31T09:11:24.211Z,845.00
2023-01-31T09:12:23.995Z,789.00
2023-01-31T09:13:23.987Z,787.00
2023-01-31T09:14:24.273Z,844.00
2023-01-31T09:15:24.321Z,827.00
2023-01-31T09:17:24.187Z,838.00
2023-01-31T09:18:23.970Z,844.00
2023-01-31T09:20:23.982Z,841.00
2023-01-31T09:21:24.901Z,854.00
2023-01-31T09:22:24.201Z,884.00
2023-01-31T09:23:23.900Z,936.00
2023-01-31T09:24:24.887Z,1003.00
2023-01-31T09:25:41.281Z,1042.00
2023-01-31T09:26:24.259Z,1045.00
2023-01-31T09:27:23.881Z,1057.00
2023-01-31T09:28:23.862Z,1082.00
2023-01-31T09:29:23.856Z,1117.00
2023-01-31T09:30:23.954Z,1169.00
2023-01-31T09:31:23.873Z,1196.00
2023-01-31T09:32:24.219Z,1200.00
2023-01-31T09:33:23.809Z,1220.00
2023-01-31T09:34:23.792Z,1230.00
2023-01-31T09:35:23.794Z,1232.00
2023-01-31T09:36:24.200Z,1252.00
2023-01-31T09:37:23.765Z,1263.00
2023-01-31T09:38:23.759Z,1291.00
2023-01-31T09:39:23.748Z,1301.00
2023-01-31T09:40:24.213Z,1304.00
2023-01-31T09:41:23.735Z,1312.00
2023-01-31T09:42:23.724Z,1325.00
2023-01-31T09:43:23.744Z,1341.00
2023-01-31T09:44:23.708Z,1346.00
2023-01-31T09:45:24.225Z,1340.00
2023-01-31T09:46:23.708Z,1362.00
2023-01-31T09:47:23.709Z,1366.00
2023-01-31T09:48:23.674Z,1384.00
2023-01-31T09:49:23.659Z,1393.00
2023-01-31T09:50:23.674Z,1402.00
2023-01-31T09:51:23.717Z,1408.00
2023-01-31T09:52:23.635Z,1411.00
2023-01-31T09:53:23.625Z,1407.00
2023-01-31T09:54:23.617Z,1419.00
2023-01-31T09:55:23.709Z,1447.00
2023-01-31T09:56:23.600Z,1436.00
2023-01-31T09:57:23.585Z,1453.00
2023-01-31T09:58:23.585Z,1452.00
2023-01-31T09:59:23.779Z,1464.00
2023-01-31T10:00:23.567Z,1468.00
2023-01-31T10:01:23.613Z,1462.00
2023-01-31T10:02:23.723Z,1488.00
2023-01-31T10:03:23.575Z,1496.00
2023-01-31T10:04:23.526Z,1493.00
2023-01-31T10:05:23.648Z,1483.00
2023-01-31T10:06:23.508Z,1507.00
2023-01-31T10:07:23.718Z,1507.00
2023-01-31T10:08:23.710Z,1511.00
2023-01-31T10:09:23.485Z,1514.00
2023-01-31T10:10:23.471Z,1516.00
2023-01-31T10:11:24.210Z,1525.00
2023-01-31T10:12:23.725Z,1533.00
2023-01-31T10:13:23.445Z,1528.00
2023-01-31T10:14:23.440Z,1537.00
2023-01-31T10:15:23.762Z,1535.00
2023-01-31T10:16:23.419Z,1536.00
2023-01-31T10:17:23.819Z,1550.00
2023-01-31T10:18:23.400Z,1548.00
2023-01-31T10:19:23.412Z,1550.00
2023-01-31T10:20:23.948Z,1548.00
2023-01-31T10:21:23.374Z,1551.00
2023-01-31T10:22:23.725Z,1555.00
2023-01-31T10:23:23.366Z,1563.00
2023-01-31T10:24:23.355Z,1565.00
2023-01-31T10:25:23.348Z,1559.00
2023-01-31T10:26:23.822Z,1586.00
2023-01-31T10:27:23.347Z,1586.00
2023-01-31T10:28:23.355Z,1563.00
2023-01-31T10:29:23.337Z,1563.00
2023-01-31T10:30:24.713Z,1561.00
2023-01-31T10:31:23.821Z,1555.00
2023-01-31T10:32:25.343Z,1501.00
2023-01-31T10:33:23.404Z,1485.00
2023-01-31T10:34:23.395Z,1483.00
2023-01-31T10:35:23.389Z,1453.00
2023-01-31T10:36:23.788Z,1438.00
2023-01-31T10:37:23.529Z,1433.00
2023-01-31T10:38:23.349Z,1431.00
2023-01-31T10:39:23.365Z,1415.00
2023-01-31T10:40:23.676Z,1418.00
2023-01-31T10:41:23.756Z,1419.00
2023-01-31T10:42:23.325Z,1411.00
2023-01-31T10:43:23.793Z,1410.00
2023-01-31T10:44:23.286Z,1375.00
2023-01-31T10:45:23.608Z,1264.00
2023-01-31T10:46:23.260Z,1151.00
2023-01-31T10:47:23.284Z,1041.00
2023-01-31T10:48:23.739Z,984.00
2023-01-31T10:49:23.734Z,900.00
2023-01-31T10:50:23.679Z,835.00
2023-01-31T10:51:23.941Z,810.00
2023-01-31T10:52:23.213Z,806.00
2023-01-31T10:53:23.195Z,738.00
2023-01-31T10:54:23.266Z,659.00
2023-01-31T10:55:23.182Z,632.00
2023-01-31T10:56:23.176Z,615.00
2023-01-31T10:57:23.154Z,610.00
2023-01-31T10:58:23.189Z,595.00
2023-01-31T10:59:23.307Z,603.00
2023-01-31T11:00:23.623Z,582.00
2023-01-31T11:01:23.196Z,568.00
2023-01-31T11:02:23.153Z,560.00
2023-01-31T11:03:23.150Z,556.00
2023-01-31T11:04:23.239Z,571.00
2023-01-31T11:05:23.085Z,587.00
2023-01-31T11:06:23.170Z,589.00
2023-01-31T11:07:23.083Z,591.00
2023-01-31T11:08:23.059Z,594.00
2023-01-31T11:09:23.239Z,593.00
2023-01-31T11:10:23.524Z,599.00
2023-01-31T11:11:23.023Z,598.00
2023-01-31T11:12:23.033Z,612.00
2023-01-31T11:13:23.013Z,611.00
2023-01-31T11:14:22.997Z,618.00
2023-01-31T11:15:22.997Z,621.00
2023-01-31T11:16:23.339Z,626.00
2023-01-31T11:17:22.991Z,626.00
2023-01-31T11:18:22.962Z,635.00
2023-01-31T11:19:23.451Z,638.00
2023-01-31T11:20:23.545Z,638.00
2023-01-31T11:21:22.933Z,640.00
2023-01-31T11:22:22.933Z,656.00
2023-01-31T11:23:22.922Z,747.00
2023-01-31T11:24:23.312Z,802.00
2023-01-31T11:25:22.895Z,865.00
2023-01-31T11:26:22.905Z,883.00
2023-01-31T11:27:23.266Z,866.00
2023-01-31T11:28:22.868Z,863.00
2023-01-31T11:29:23.264Z,868.00
2023-01-31T11:30:23.275Z,865.00
2023-01-31T11:31:22.939Z,843.00
2023-01-31T11:32:22.834Z,842.00
2023-01-31T11:33:22.826Z,841.00
2023-01-31T11:34:23.258Z,841.00
2023-01-31T11:35:22.826Z,846.00
2023-01-31T11:36:22.889Z,833.00
2023-01-31T11:37:22.795Z,824.00
2023-01-31T11:38:22.781Z,834.00
2023-01-31T11:39:23.287Z,821.00
2023-01-31T11:40:23.179Z,822.00
2023-01-31T11:41:22.748Z,812.00
2023-01-31T11:42:22.755Z,811.00
2023-01-31T11:43:22.732Z,799.00
2023-01-31T11:44:22.746Z,808.00
2023-01-31T11:45:22.719Z,813.00
2023-01-31T11:46:22.800Z,806.00
2023-01-31T11:47:22.698Z,803.00
2023-01-31T11:48:22.692Z,791.00
2023-01-31T11:49:23.266Z,795.00
2023-01-31T11:50:23.612Z,801.00
2023-01-31T11:51:22.795Z,792.00
2023-01-31T11:52:22.654Z,803.00
2023-01-31T11:53:22.640Z,785.00
2023-01-31T11:54:22.633Z,780.00
2023-01-31T11:55:22.765Z,782.00
2023-01-31T11:56:22.608Z,784.00
2023-01-31T11:57:22.600Z,782.00
2023-01-31T11:58:22.775Z,772.00
2023-01-31T11:59:22.714Z,768.00
2023-01-31T12:00:22.988Z,769.00
2023-01-31T12:01:22.570Z,776.00
2023-01-31T12:02:22.595Z,777.00
2023-01-31T12:03:22.852Z,753.00
2023-01-31T12:04:22.557Z,754.00
2023-01-31T12:05:22.539Z,758.00
2023-01-31T12:06:23.457Z,749.00
2023-01-31T12:07:22.539Z,759.00
2023-01-31T12:08:22.766Z,772.00
2023-01-31T12:09:22.487Z,764.00
2023-01-31T12:10:22.878Z,754.00
2023-01-31T12:11:22.480Z,761.00
2023-01-31T12:12:22.462Z,737.00
2023-01-31T12:13:22.456Z,749.00
2023-01-31T12:14:22.456Z,739.00
2023-01-31T12:15:22.893Z,732.00
2023-01-31T12:16:22.549Z,734.00
2023-01-31T12:17:22.418Z,747.00
2023-01-31T12:18:22.778Z,729.00
2023-01-31T12:19:22.403Z,730.00
2023-01-31T12:20:28.635Z,726.00
2023-01-31T12:21:22.386Z,727.00
2023-01-31T12:22:22.369Z,730.00
2023-01-31T12:23:22.824Z,730.00
2023-01-31T12:24:22.346Z,732.00
2023-01-31T12:25:22.778Z,729.00
2023-01-31T12:26:22.400Z,742.00
2023-01-31T12:27:22.336Z,723.00
2023-01-31T12:28:22.784Z,716.00
2023-01-31T12:29:22.780Z,728.00
2023-01-31T12:30:22.354Z,725.00
2023-01-31T12:31:22.415Z,721.00
2023-01-31T12:32:22.293Z,706.00
2023-01-31T12:33:22.274Z,705.00
2023-01-31T12:34:22.259Z,700.00
2023-01-31T12:35:22.820Z,708.00
2023-01-31T12:36:22.248Z,710.00
2023-01-31T12:37:22.240Z,702.00
2023-01-31T12:38:22.305Z,698.00
2023-01-31T12:39:22.250Z,691.00
2023-01-31T12:40:25.584Z,697.00
2023-01-31T12:41:22.188Z,698.00
2023-01-31T12:42:22.193Z,699.00
2023-01-31T12:43:22.290Z,700.00
2023-01-31T12:44:22.162Z,702.00
2023-01-31T12:45:22.475Z,686.00
2023-01-31T12:46:22.206Z,690.00
2023-01-31T12:47:22.131Z,697.00
2023-01-31T12:48:22.294Z,693.00
2023-01-31T12:49:22.299Z,694.00
2023-01-31T12:50:22.140Z,689.00
2023-01-31T12:51:22.126Z,688.00
2023-01-31T12:52:22.090Z,691.00
2023-01-31T12:53:22.085Z,678.00
2023-01-31T12:54:22.298Z,688.00
2023-01-31T12:55:22.708Z,682.00
2023-01-31T12:56:22.052Z,684.00
2023-01-31T12:57:22.044Z,676.00
2023-01-31T12:58:22.049Z,673.00
2023-01-31T12:59:22.290Z,666.00
2023-01-31T13:00:22.007Z,671.00
2023-01-31T13:01:22.308Z,684.00
2023-01-31T13:02:22.056Z,671.00
2023-01-31T13:03:21.989Z,682.00
2023-01-31T13:04:21.984Z,672.00
2023-01-31T13:05:22.421Z,666.00
2023-01-31T13:06:22.301Z,670.00
2023-01-31T13:07:22.078Z,672.00
2023-01-31T13:08:21.937Z,836.00
2023-01-31T13:09:21.930Z,1055.00
2023-01-31T13:10:22.164Z,1043.00
2023-01-31T13:11:22.328Z,1094.00
2023-01-31T13:12:21.906Z,885.00
2023-01-31T13:13:21.892Z,798.00
2023-01-31T13:14:22.302Z,789.00
2023-01-31T13:15:22.608Z,839.00
2023-01-31T13:16:22.345Z,815.00
2023-01-31T13:17:21.880Z,803.00
2023-01-31T13:18:21.845Z,784.00
2023-01-31T13:19:21.837Z,774.00
2023-01-31T13:20:22.300Z,773.00
2023-01-31T13:21:21.816Z,765.00
2023-01-31T13:22:21.808Z,768.00